»·PEaware :: N8427G KLAX-KSNA

N8427G :: KLAX-KSNA

FLIGHT INFORMATION

Flight Status: Arrived
Operator: Privately registered:
United States
More flights under this callsign
Pilot: Walter A. (18941)
Aircraft: PIPER PA-28 CHEROKEE ARCHER
(PA28)
More flights by this aircraft type
Origin: KLAX Los Angeles Intl
United States
Destination: KSNA John Wayne-Orange Co
United States
More flights between these airports :: More routes between these airports
Route: SLI8 SLI
File this flight plan on PilotEdge
Remarks: ils6
Altitude:
(Current/Filed)
4,000ft
Speed:
(Current/Filed)
110kts
Departed: 28-Jul-20 09:20 AM
Arrived: 28-Jul-20 10:03 AM
Distance/Time
Traveled:
31nm/0:42
Distance/Time
To Go:
Arrived

Flight Plot

Page will automatically refresh every two minutes.

Flight plan parsing failed; only flown route is shown


Map Options




Map Legend


Flown Route
Filed Route
Departure Airport
Arrival Airport
Navaid (VOR, NDB)
Fix

Horizontal Profiles

Position Reports

Time Latitude Longitude Heading Altitude Ground
Speed
28-Jul-20 09:09 33.935438 -118.380264 75 97ft 0kts
28-Jul-20 09:10 33.935438 -118.380264 75 97ft 0kts
28-Jul-20 09:11 33.935438 -118.380264 75 97ft 0kts
28-Jul-20 09:12 33.935438 -118.380264 75 97ft 0kts
28-Jul-20 09:13 33.935438 -118.380264 75 97ft 0kts
28-Jul-20 09:14 33.935438 -118.380264 75 97ft 0kts
28-Jul-20 09:15 33.935444 -118.380238 74 97ft 2kts
28-Jul-20 09:16 33.936606 -118.382786 351 97ft 0kts
28-Jul-20 09:17 33.936606 -118.382786 351 97ft 0kts
28-Jul-20 09:18 33.937336 -118.383854 259 98ft 29kts
28-Jul-20 09:19 33.935009 -118.404470 263 199ft 61kts
28-Jul-20 09:20 33.930360 -118.429405 251 430ft 93kts
28-Jul-20 09:21 33.913377 -118.451050 212 904ft 104kts
28-Jul-20 09:22 33.888446 -118.469535 209 1376ft 106kts
28-Jul-20 09:23 33.863076 -118.487479 209 1845ft 105kts
28-Jul-20 09:24 33.837481 -118.485845 142 2318ft 102kts
28-Jul-20 09:25 33.814369 -118.466013 144 2785ft 101kts
28-Jul-20 09:26 33.791501 -118.446605 145 3252ft 99kts
28-Jul-20 09:27 33.769234 -118.427831 144 3716ft 96kts
28-Jul-20 09:28 33.747041 -118.408812 141 4005ft 109kts
28-Jul-20 09:29 33.721912 -118.383037 138 4001ft 123kts
28-Jul-20 09:30 33.696277 -118.354874 136 4000ft 125kts
28-Jul-20 09:31 33.678722 -118.323106 59 4008ft 123kts
28-Jul-20 09:32 33.698012 -118.288217 56 4000ft 125kts
28-Jul-20 09:33 33.716482 -118.252577 59 3999ft 125kts
28-Jul-20 09:34 33.734488 -118.216553 57 4000ft 125kts
28-Jul-20 09:35 33.752287 -118.180353 60 3999ft 125kts
28-Jul-20 09:36 33.767243 -118.142551 67 4000ft 125kts
28-Jul-20 09:37 33.781143 -118.103818 66 3999ft 125kts
28-Jul-20 09:38 33.789609 -118.063307 89 3998ft 126kts
28-Jul-20 09:39 33.778217 -118.025250 62 4000ft 124kts
28-Jul-20 09:40 33.804780 -118.000572 27 3995ft 125kts
28-Jul-20 09:41 33.837639 -117.987664 33 3998ft 126kts
28-Jul-20 09:42 33.863429 -117.959126 50 3997ft 126kts
28-Jul-20 09:43 33.863065 -117.918710 102 4000ft 125kts
28-Jul-20 09:44 33.862486 -117.878791 59 4002ft 125kts
28-Jul-20 09:45 33.877031 -117.840562 67 3999ft 125kts
28-Jul-20 09:46 33.890682 -117.801843 66 3999ft 126kts
28-Jul-20 09:47 33.904221 -117.762841 66 3999ft 125kts
28-Jul-20 09:48 33.917788 -117.724102 67 3999ft 125kts
28-Jul-20 09:49 33.944994 -117.700922 24 4000ft 125kts
28-Jul-20 09:50 33.976772 -117.696122 328 3962ft 128kts
28-Jul-20 09:51 33.968940 -117.726385 207 3610ft 137kts
28-Jul-20 09:52 33.935263 -117.715396 140 3499ft 129kts
28-Jul-20 09:53 33.903684 -117.702186 202 3498ft 126kts
28-Jul-20 09:54 33.874170 -117.725043 214 3500ft 126kts
28-Jul-20 09:55 33.847532 -117.752509 227 3499ft 126kts
28-Jul-20 09:56 33.818586 -117.780559 206 3080ft 141kts
28-Jul-20 09:57 33.785003 -117.800426 208 2543ft 122kts
28-Jul-20 09:58 33.757037 -117.819282 206 2169ft 106kts
28-Jul-20 09:59 33.727657 -117.835084 211 1364ft 121kts
28-Jul-20 10:00 33.704498 -117.850376 207 918ft 91kts
28-Jul-20 10:01 33.684581 -117.863198 206 148ft 68kts
28-Jul-20 10:02 33.675298 -117.868032 146 61ft 16kts
28-Jul-20 10:03 33.674455 -117.868668 215 61ft 9kts
28-Jul-20 10:04 33.674338 -117.868874 269 61ft 0kts
28-Jul-20 10:05 33.675161 -117.869409 329 61ft 9kts
28-Jul-20 10:06 33.673826 -117.867341 123 61ft 22kts
28-Jul-20 10:07 33.674718 -117.865007 100 61ft 0kts
28-Jul-20 10:08 33.674718 -117.865006 100 61ft 0kts

Navigation Log

Ident Type
Flight plan parsing failed, navigation log unavailable